createdAt,value
2023-03-30T00:01:28.176Z,6.03
2023-03-30T00:04:13.709Z,5.93
2023-03-30T00:06:59.326Z,5.93
2023-03-30T00:09:44.382Z,5.50
2023-03-30T00:12:29.792Z,5.28
2023-03-30T00:15:17.775Z,5.90
2023-03-30T00:18:03.045Z,5.47
2023-03-30T00:20:49.492Z,5.22
2023-03-30T00:23:34.955Z,5.00
2023-03-30T00:26:20.405Z,5.30
2023-03-30T00:29:05.999Z,5.30
2023-03-30T00:31:51.166Z,5.22
2023-03-30T00:34:36.387Z,5.35
2023-03-30T00:37:21.662Z,5.13
2023-03-30T00:40:10.026Z,5.30
2023-03-30T00:43:00.626Z,5.15
2023-03-30T00:45:46.277Z,5.45
2023-03-30T00:48:35.341Z,5.13
2023-03-30T00:51:20.682Z,5.22
2023-03-30T00:54:10.661Z,4.88
2023-03-30T00:56:56.152Z,5.13
2023-03-30T00:59:41.716Z,4.90
2023-03-30T01:02:30.912Z,4.55
2023-03-30T01:05:16.677Z,4.53
2023-03-30T01:08:03.876Z,4.35
2023-03-30T01:10:49.276Z,4.72
2023-03-30T01:13:38.816Z,4.13
2023-03-30T01:16:36.368Z,4.50
2023-03-30T01:19:24.262Z,4.00
2023-03-30T01:22:20.785Z,4.07
2023-03-30T01:25:32.535Z,4.40
2023-03-30T01:28:30.965Z,4.10
2023-03-30T01:31:35.165Z,3.78
2023-03-30T01:35:05.278Z,3.53
2023-03-30T01:38:20.877Z,3.90
2023-03-30T01:41:15.053Z,3.70
2023-03-30T01:44:09.817Z,3.75
2023-03-30T01:47:17.870Z,3.42
2023-03-30T01:50:19.889Z,3.30
2023-03-30T01:53:16.795Z,3.63
2023-03-30T01:56:17.173Z,3.95
2023-03-30T01:59:10.277Z,3.90
2023-03-30T02:01:59.925Z,4.50
2023-03-30T02:04:48.356Z,5.13
2023-03-30T02:07:36.354Z,5.20
2023-03-30T02:10:27.350Z,4.97
2023-03-30T02:13:13.854Z,5.00
2023-03-30T02:16:04.811Z,5.78
2023-03-30T02:18:50.094Z,5.35
2023-03-30T02:21:35.534Z,4.30
2023-03-30T02:24:25.417Z,5.07
2023-03-30T02:27:11.202Z,5.30
2023-03-30T02:29:56.450Z,5.80
2023-03-30T02:32:52.140Z,5.53
2023-03-30T02:35:56.264Z,4.68
2023-03-30T02:39:03.229Z,4.60
2023-03-30T02:42:10.162Z,3.83
2023-03-30T02:45:32.370Z,4.03
2023-03-30T02:48:39.688Z,3.53
2023-03-30T02:51:37.958Z,3.33
2023-03-30T02:54:38.524Z,3.67
2023-03-30T02:57:32.921Z,3.25
2023-03-30T03:00:25.962Z,3.08
2023-03-30T03:03:35.454Z,3.50
2023-03-30T03:06:21.392Z,3.10
2023-03-30T03:09:06.593Z,3.05
2023-03-30T03:11:52.440Z,3.50
2023-03-30T03:14:38.732Z,3.10
2023-03-30T03:17:23.879Z,2.92
2023-03-30T03:20:09.180Z,3.40
2023-03-30T03:22:54.313Z,2.88
2023-03-30T03:25:39.747Z,3.45
2023-03-30T03:28:25.005Z,3.53
2023-03-30T03:31:10.327Z,3.40
2023-03-30T03:33:55.517Z,3.95
2023-03-30T03:36:40.987Z,3.55
2023-03-30T03:39:26.474Z,3.40
2023-03-30T03:42:12.501Z,2.92
2023-03-30T03:44:57.653Z,3.17
2023-03-30T03:47:43.074Z,3.63
2023-03-30T03:50:28.582Z,3.60
2023-03-30T03:53:13.598Z,3.85
2023-03-30T03:55:59.041Z,3.83
2023-03-30T03:58:44.213Z,3.60
2023-03-30T04:01:29.478Z,3.28
2023-03-30T04:04:14.825Z,2.90
2023-03-30T04:07:00.152Z,2.90
2023-03-30T04:09:45.131Z,3.47
2023-03-30T04:12:30.708Z,2.88
2023-03-30T04:15:16.110Z,3.10
2023-03-30T04:18:01.356Z,3.20
2023-03-30T04:20:46.837Z,3.35
2023-03-30T04:23:34.057Z,3.25
2023-03-30T04:26:19.681Z,2.70
2023-03-30T04:29:05.046Z,2.80
2023-03-30T04:31:50.115Z,2.80
2023-03-30T04:34:35.492Z,2.88
2023-03-30T04:37:21.484Z,2.90
2023-03-30T04:40:08.267Z,2.97
2023-03-30T04:42:53.845Z,2.67
2023-03-30T04:45:38.979Z,3.15
2023-03-30T04:48:24.343Z,3.20
2023-03-30T04:51:09.920Z,3.22
2023-03-30T04:53:55.291Z,2.80
2023-03-30T04:56:40.484Z,3.20
2023-03-30T04:59:25.828Z,2.97
2023-03-30T05:02:12.718Z,2.90
2023-03-30T05:04:58.253Z,3.10
2023-03-30T05:07:43.813Z,3.10
2023-03-30T05:10:29.201Z,2.72
2023-03-30T05:13:14.453Z,2.97
2023-03-30T05:15:59.800Z,2.88
2023-03-30T05:18:45.466Z,2.90
2023-03-30T05:21:30.751Z,3.00
2023-03-30T05:24:16.153Z,3.00
2023-03-30T05:27:01.384Z,2.88
2023-03-30T05:29:46.699Z,3.10
2023-03-30T05:32:32.182Z,3.40
2023-03-30T05:35:17.444Z,2.60
2023-03-30T05:38:02.785Z,2.72
2023-03-30T05:40:54.597Z,2.25
2023-03-30T05:43:39.718Z,2.67
2023-03-30T05:46:25.112Z,2.53
2023-03-30T05:49:10.782Z,2.38
2023-03-30T05:51:55.916Z,2.22
2023-03-30T05:54:41.095Z,2.30
2023-03-30T05:57:26.540Z,2.13
2023-03-30T06:00:13.115Z,2.35
2023-03-30T06:02:58.425Z,2.65
2023-03-30T06:05:43.902Z,5.13
2023-03-30T06:08:29.155Z,2.63
2023-03-30T06:11:15.825Z,2.67
2023-03-30T06:14:00.975Z,2.25
2023-03-30T06:16:46.691Z,2.55
2023-03-30T06:19:32.256Z,2.65
2023-03-30T06:22:17.664Z,2.60
2023-03-30T06:25:05.130Z,2.45
2023-03-30T06:27:50.184Z,2.42
2023-03-30T06:30:35.600Z,2.50
2023-03-30T06:33:21.130Z,2.78
2023-03-30T06:36:10.606Z,2.05
2023-03-30T06:38:56.323Z,2.50
2023-03-30T06:41:41.796Z,2.80
2023-03-30T06:44:27.092Z,2.58
2023-03-30T06:47:12.457Z,2.60
2023-03-30T06:49:57.791Z,2.72
2023-03-30T06:52:42.800Z,2.53
2023-03-30T06:55:28.212Z,2.70
2023-03-30T06:58:14.098Z,2.70
2023-03-30T07:01:07.852Z,3.00
2023-03-30T07:03:53.082Z,2.75
2023-03-30T07:06:38.497Z,2.88
2023-03-30T07:09:24.732Z,2.83
2023-03-30T07:12:09.530Z,3.13
2023-03-30T07:14:54.921Z,3.30
2023-03-30T07:17:41.644Z,3.13
2023-03-30T07:20:27.103Z,3.00
2023-03-30T07:23:13.790Z,3.20
2023-03-30T07:26:00.140Z,2.88
2023-03-30T07:28:45.458Z,3.30
2023-03-30T07:31:31.240Z,3.35
2023-03-30T07:34:16.928Z,2.80
2023-03-30T07:37:01.989Z,3.08
2023-03-30T07:39:47.457Z,2.78
2023-03-30T07:42:33.406Z,2.80
2023-03-30T07:45:18.583Z,3.13
2023-03-30T07:48:04.117Z,2.83
2023-03-30T07:50:49.708Z,2.80
2023-03-30T07:53:35.346Z,3.00
2023-03-30T07:56:20.946Z,2.40
2023-03-30T07:59:06.581Z,2.63
2023-03-30T08:01:51.673Z,2.53
2023-03-30T08:04:38.682Z,2.83
2023-03-30T08:07:24.079Z,2.47
2023-03-30T08:10:10.134Z,2.80
2023-03-30T08:12:55.541Z,2.53
2023-03-30T08:15:40.817Z,2.22
2023-03-30T08:18:28.535Z,2.50
2023-03-30T08:21:14.676Z,2.38
2023-03-30T08:24:00.251Z,2.10
2023-03-30T08:26:45.567Z,2.75
2023-03-30T08:29:30.689Z,2.67
2023-03-30T08:32:16.051Z,2.40
2023-03-30T08:35:02.261Z,2.63
2023-03-30T08:37:48.647Z,2.63
2023-03-30T08:40:33.728Z,2.42
2023-03-30T08:43:40.529Z,2.40
2023-03-30T08:46:25.779Z,2.38
2023-03-30T08:49:16.406Z,2.10
2023-03-30T08:52:04.490Z,2.75
2023-03-30T08:54:50.877Z,2.17
2023-03-30T08:57:48.326Z,2.50
2023-03-30T09:00:40.871Z,2.40
2023-03-30T09:03:39.512Z,2.83
2023-03-30T09:06:47.094Z,2.60
2023-03-30T09:09:43.627Z,2.78
2023-03-30T09:12:43.290Z,2.35
2023-03-30T09:15:33.085Z,2.53
2023-03-30T09:18:27.167Z,2.45
2023-03-30T09:21:13.401Z,2.75
2023-03-30T09:24:01.095Z,2.80
2023-03-30T09:27:05.490Z,2.50
2023-03-30T09:29:53.380Z,2.50
2023-03-30T09:32:47.769Z,2.40
2023-03-30T09:35:43.036Z,2.47
2023-03-30T09:38:30.803Z,2.50
2023-03-30T09:41:34.680Z,2.80
2023-03-30T09:44:43.181Z,2.80
2023-03-30T09:47:35.497Z,2.95
2023-03-30T09:50:28.174Z,3.05
2023-03-30T09:53:27.196Z,3.25
2023-03-30T09:56:34.587Z,4.60
2023-03-30T09:59:19.621Z,4.28
2023-03-30T10:02:13.971Z,3.45
2023-03-30T10:05:01.967Z,3.33
2023-03-30T10:07:54.690Z,3.38
2023-03-30T10:10:40.295Z,3.28
2023-03-30T10:13:36.482Z,3.17
2023-03-30T10:16:25.751Z,3.00
2023-03-30T10:19:20.569Z,2.90
2023-03-30T10:22:17.878Z,2.50
2023-03-30T10:25:10.113Z,3.05
2023-03-30T10:27:58.014Z,3.30
2023-03-30T10:30:52.406Z,3.15
2023-03-30T10:33:40.625Z,2.60
2023-03-30T10:36:38.524Z,2.58
2023-03-30T10:39:30.047Z,2.80
2023-03-30T10:42:18.707Z,3.15
2023-03-30T10:45:06.656Z,2.22
2023-03-30T10:48:02.962Z,2.40
2023-03-30T10:51:07.500Z,2.53
2023-03-30T10:54:04.415Z,2.60
2023-03-30T10:57:11.361Z,2.65
2023-03-30T11:00:07.175Z,2.75
2023-03-30T11:03:15.654Z,2.10
2023-03-30T11:06:13.064Z,2.28
2023-03-30T11:09:03.499Z,1.75
2023-03-30T11:11:52.437Z,2.30
2023-03-30T11:14:58.050Z,2.40
2023-03-30T11:17:55.336Z,1.98
2023-03-30T11:21:05.516Z,2.40
2023-03-30T11:24:22.704Z,2.00
2023-03-30T11:27:20.467Z,2.10
2023-03-30T11:30:26.295Z,2.05
2023-03-30T11:33:17.502Z,2.10
2023-03-30T11:36:06.173Z,1.80
2023-03-30T11:39:00.703Z,2.30
2023-03-30T11:41:50.745Z,2.17
2023-03-30T11:44:36.393Z,2.00
2023-03-30T11:47:43.483Z,2.33
2023-03-30T11:50:55.354Z,1.98
2023-03-30T11:53:56.274Z,2.20
2023-03-30T11:56:53.262Z,2.20
2023-03-30T11:59:59.142Z,2.20
2023-03-30T12:02:51.247Z,2.05
2023-03-30T12:05:50.629Z,2.72
2023-03-30T12:09:04.997Z,2.10
2023-03-30T12:12:12.320Z,2.45
2023-03-30T12:15:03.613Z,2.85
2023-03-30T12:17:54.485Z,2.80
2023-03-30T12:20:55.035Z,3.05
2023-03-30T12:23:57.729Z,2.70
2023-03-30T12:26:51.694Z,3.00
2023-03-30T12:32:57.884Z,3.03
2023-03-30T12:35:59.910Z,2.65
2023-03-30T12:38:50.281Z,2.95
2023-03-30T12:41:47.026Z,10.15
2023-03-30T12:44:55.585Z,3.15
2023-03-30T12:47:56.004Z,2.92
2023-03-30T12:51:20.617Z,3.13
2023-03-30T12:54:26.215Z,3.40
2023-03-30T12:57:36.425Z,3.10
2023-03-30T13:00:58.905Z,2.20
2023-03-30T13:04:17.295Z,2.03
2023-03-30T13:07:06.098Z,2.22
2023-03-30T13:10:00.306Z,2.65
2023-03-30T13:12:47.849Z,2.47
2023-03-30T13:15:39.268Z,2.75
2023-03-30T13:18:33.241Z,2.72
2023-03-30T13:21:22.631Z,2.70
2023-03-30T13:24:35.314Z,2.72
2023-03-30T13:27:20.232Z,2.65
2023-03-30T13:30:08.801Z,3.10
2023-03-30T13:33:11.394Z,3.17
2023-03-30T13:35:56.442Z,3.00
2023-03-30T13:39:01.274Z,3.28
2023-03-30T13:42:04.200Z,3.25
2023-03-30T13:45:16.375Z,3.42
2023-03-30T13:48:13.346Z,3.30
2023-03-30T13:51:00.890Z,3.13
2023-03-30T13:54:26.216Z,3.28
2023-03-30T13:57:23.234Z,3.13
2023-03-30T14:00:32.599Z,3.55
2023-03-30T14:03:55.219Z,3.70
2023-03-30T14:06:46.729Z,3.60
2023-03-30T14:09:33.531Z,3.15
2023-03-30T14:12:20.795Z,3.60
2023-03-30T14:15:17.850Z,3.30
2023-03-30T14:18:03.572Z,4.55
2023-03-30T14:20:56.940Z,4.10
2023-03-30T14:23:51.266Z,2.42
2023-03-30T14:26:39.665Z,10.20
2023-03-30T14:29:31.373Z,3.15
2023-03-30T14:32:19.565Z,3.28
2023-03-30T14:35:05.649Z,2.05
2023-03-30T14:37:52.480Z,2.08
2023-03-30T14:40:39.261Z,2.20
2023-03-30T14:43:30.090Z,2.22
2023-03-30T14:46:15.238Z,2.15
2023-03-30T14:49:00.508Z,2.30
2023-03-30T14:51:51.226Z,2.92
2023-03-30T14:54:38.427Z,3.05
2023-03-30T14:57:25.172Z,2.67
2023-03-30T15:00:19.676Z,2.85
2023-03-30T15:03:06.025Z,3.30
2023-03-30T15:05:51.407Z,3.85
2023-03-30T15:08:39.768Z,3.20
2023-03-30T15:11:28.036Z,3.50
2023-03-30T15:14:20.916Z,3.50
2023-03-30T15:17:14.804Z,3.75
2023-03-30T15:20:01.993Z,3.00
2023-03-30T15:22:50.508Z,2.90
2023-03-30T15:25:35.897Z,3.80
2023-03-30T15:28:21.471Z,3.47
2023-03-30T15:31:10.936Z,3.65
2023-03-30T15:33:58.518Z,3.75
2023-03-30T15:36:43.934Z,3.80
2023-03-30T15:39:32.589Z,3.63
2023-03-30T15:42:38.438Z,4.15
2023-03-30T15:45:24.718Z,3.88
2023-03-30T15:48:11.601Z,3.90
2023-03-30T15:51:05.342Z,3.35
2023-03-30T15:53:55.674Z,3.70
2023-03-30T15:56:56.266Z,3.50
2023-03-30T16:00:03.105Z,3.83
2023-03-30T16:02:52.056Z,2.90
2023-03-30T16:05:37.391Z,2.88
2023-03-30T16:08:23.010Z,2.33
2023-03-30T16:11:08.453Z,3.10
2023-03-30T16:13:53.973Z,3.58
2023-03-30T16:16:39.221Z,2.80
2023-03-30T16:19:24.534Z,2.90
2023-03-30T16:22:11.199Z,3.00
2023-03-30T16:24:56.160Z,3.17
2023-03-30T16:27:41.109Z,3.45
2023-03-30T16:30:40.236Z,3.28
2023-03-30T16:33:25.722Z,3.45
2023-03-30T16:36:16.918Z,3.80
2023-03-30T16:39:02.009Z,3.72
2023-03-30T16:41:48.671Z,3.83
2023-03-30T16:44:36.301Z,4.03
2023-03-30T16:47:21.487Z,3.58
2023-03-30T16:50:40.553Z,4.60
2023-03-30T16:53:25.878Z,4.90
2023-03-30T16:56:18.848Z,5.07
2023-03-30T16:59:05.385Z,5.50
2023-03-30T17:01:51.681Z,6.05
2023-03-30T17:04:37.208Z,4.90
2023-03-30T17:07:22.448Z,12.82
2023-03-30T17:10:18.697Z,4.60
2023-03-30T17:13:03.932Z,5.00
2023-03-30T17:15:48.863Z,4.72
2023-03-30T17:18:33.714Z,4.50
2023-03-30T17:21:19.280Z,4.47
2023-03-30T17:24:04.974Z,4.00
2023-03-30T17:26:50.637Z,3.90
2023-03-30T17:29:36.109Z,4.03
2023-03-30T17:32:21.380Z,4.15
2023-03-30T17:35:07.051Z,3.95
2023-03-30T17:37:53.274Z,3.85
2023-03-30T17:40:38.505Z,3.80
2023-03-30T17:43:26.762Z,4.38
2023-03-30T17:46:13.661Z,4.30
2023-03-30T17:48:58.927Z,4.10
2023-03-30T17:51:44.424Z,4.82
2023-03-30T17:54:29.422Z,5.20
2023-03-30T17:57:14.835Z,4.88
2023-03-30T18:00:04.490Z,4.90
2023-03-30T18:02:50.609Z,4.82
2023-03-30T18:05:35.790Z,4.57
2023-03-30T18:08:21.980Z,4.50
2023-03-30T18:11:07.203Z,4.47
2023-03-30T18:13:53.807Z,4.57
2023-03-30T18:16:43.328Z,4.60
2023-03-30T18:19:28.667Z,4.35
2023-03-30T18:22:14.171Z,4.55
2023-03-30T18:24:58.992Z,4.90
2023-03-30T18:27:44.409Z,4.88
2023-03-30T18:30:35.722Z,5.25
2023-03-30T18:33:21.498Z,4.82
2023-03-30T18:36:10.323Z,5.40
2023-03-30T18:38:56.276Z,5.25
2023-03-30T18:41:41.489Z,4.30
2023-03-30T18:44:26.320Z,4.07
2023-03-30T18:47:11.817Z,3.55
2023-03-30T18:49:57.101Z,3.27
2023-03-30T18:52:42.444Z,3.50
2023-03-30T18:55:27.174Z,3.92
2023-03-30T18:58:15.474Z,3.50
2023-03-30T19:01:01.093Z,3.70
2023-03-30T19:03:46.466Z,3.20
2023-03-30T19:06:31.745Z,3.23
2023-03-30T19:09:17.061Z,3.42
2023-03-30T19:12:02.583Z,3.50
2023-03-30T19:14:48.063Z,2.88
2023-03-30T19:17:33.481Z,3.25
2023-03-30T19:20:21.889Z,3.22
2023-03-30T19:23:09.748Z,3.03
2023-03-30T19:25:54.783Z,2.97
2023-03-30T19:28:40.201Z,2.70
2023-03-30T19:31:25.623Z,2.58
2023-03-30T19:34:10.944Z,2.80
2023-03-30T19:36:56.036Z,2.80
2023-03-30T19:39:42.849Z,2.58
2023-03-30T19:42:27.806Z,2.90
2023-03-30T19:45:15.055Z,2.58
2023-03-30T19:48:00.265Z,3.27
2023-03-30T19:50:47.894Z,2.50
2023-03-30T19:53:33.054Z,2.78
2023-03-30T19:56:17.947Z,2.80
2023-03-30T19:59:03.323Z,2.53
2023-03-30T20:01:48.710Z,2.97
2023-03-30T20:04:33.697Z,2.67
2023-03-30T20:07:18.652Z,3.00
2023-03-30T20:10:06.617Z,2.47
2023-03-30T20:12:52.571Z,2.70
2023-03-30T20:15:37.882Z,2.65
2023-03-30T20:18:23.123Z,2.72
2023-03-30T20:21:08.786Z,3.40
2023-03-30T20:23:53.947Z,2.70
2023-03-30T20:26:40.971Z,2.80
2023-03-30T20:29:26.340Z,2.97
2023-03-30T20:32:11.669Z,2.88
2023-03-30T20:34:56.715Z,3.40
2023-03-30T20:37:41.567Z,2.83
2023-03-30T20:40:26.417Z,2.80
2023-03-30T20:43:11.285Z,2.90
2023-03-30T20:45:56.797Z,3.20
2023-03-30T20:48:42.203Z,3.00
2023-03-30T20:51:28.312Z,2.78
2023-03-30T20:54:13.569Z,3.10
2023-03-30T20:56:58.450Z,2.97
2023-03-30T20:59:43.781Z,3.40
2023-03-30T21:02:30.260Z,3.75
2023-03-30T21:05:16.813Z,3.28
2023-03-30T21:08:02.149Z,3.13
2023-03-30T21:10:48.621Z,3.40
2023-03-30T21:13:34.463Z,3.40
2023-03-30T21:16:19.372Z,2.92
2023-03-30T21:19:05.426Z,3.28
2023-03-30T21:21:50.577Z,4.28
2023-03-30T21:24:35.928Z,3.75
2023-03-30T21:27:20.975Z,3.40
2023-03-30T21:30:06.857Z,3.53
2023-03-30T21:32:52.269Z,3.70
2023-03-30T21:35:37.513Z,3.47
2023-03-30T21:38:23.834Z,3.90
2023-03-30T21:41:12.873Z,3.70
2023-03-30T21:43:57.873Z,3.50
2023-03-30T21:46:43.251Z,3.50
2023-03-30T21:49:28.654Z,2.80
2023-03-30T21:52:13.887Z,2.67
2023-03-30T21:54:59.226Z,3.33
2023-03-30T21:57:44.172Z,3.00
2023-03-30T22:00:29.656Z,2.73
2023-03-30T22:03:15.460Z,3.35
2023-03-30T22:06:03.099Z,2.60
2023-03-30T22:08:49.316Z,2.72
2023-03-30T22:11:34.614Z,2.47
2023-03-30T22:14:19.857Z,2.97
2023-03-30T22:17:04.725Z,2.60
2023-03-30T22:19:50.116Z,2.63
2023-03-30T22:22:35.008Z,2.85
2023-03-30T22:25:19.953Z,3.00
2023-03-30T22:28:05.518Z,2.72
2023-03-30T22:30:50.737Z,2.60
2023-03-30T22:33:36.093Z,3.10
2023-03-30T22:36:24.005Z,2.83
2023-03-30T22:39:09.275Z,2.90
2023-03-30T22:41:54.598Z,2.85
2023-03-30T22:44:39.681Z,2.63
2023-03-30T22:47:24.699Z,2.33
2023-03-30T22:50:10.303Z,2.50
2023-03-30T22:52:56.535Z,2.90
2023-03-30T22:55:41.518Z,2.42
2023-03-30T22:58:27.595Z,2.53
2023-03-30T23:01:12.931Z,2.28
2023-03-30T23:03:58.393Z,2.25
2023-03-30T23:06:43.469Z,2.40
2023-03-30T23:09:29.577Z,2.70
2023-03-30T23:12:14.772Z,1.90
2023-03-30T23:15:00.183Z,2.57
2023-03-30T23:17:45.431Z,2.45
2023-03-30T23:20:30.769Z,2.38
2023-03-30T23:23:16.728Z,2.53
2023-03-30T23:26:01.902Z,2.63
2023-03-30T23:28:46.946Z,2.35
2023-03-30T23:31:31.996Z,2.40
2023-03-30T23:34:17.395Z,2.53
2023-03-30T23:37:02.666Z,1.98
2023-03-30T23:39:48.483Z,2.05
2023-03-30T23:42:33.686Z,2.55
2023-03-30T23:45:19.105Z,2.27
2023-03-30T23:48:04.185Z,2.38
2023-03-30T23:50:49.364Z,2.17
2023-03-30T23:53:35.101Z,2.10
2023-03-30T23:56:21.234Z,2.40
2023-03-30T23:59:06.593Z,2.10
